sensor_id;sensor_type;location;lat;lon;timestamp;pressure;altitude;pressure_sealevel;temperature;humidity
74893;BME280;63446;56.272;43.922;2022-11-15T00:00:52;100772.88;;;1.16;64.80
74893;BME280;63446;56.272;43.922;2022-11-15T00:03:37;100773.88;;;1.22;64.58
74893;BME280;63446;56.272;43.922;2022-11-15T00:06:21;100773.09;;;1.28;64.69
74893;BME280;63446;56.272;43.922;2022-11-15T00:09:05;100764.47;;;1.34;64.69
74893;BME280;63446;56.272;43.922;2022-11-15T00:11:51;100770.91;;;1.38;64.57
74893;BME280;63446;56.272;43.922;2022-11-15T00:14:36;100759.28;;;1.41;64.55
74893;BME280;63446;56.272;43.922;2022-11-15T00:17:20;100763.31;;;1.43;64.41
74893;BME280;63446;56.272;43.922;2022-11-15T00:20:06;100765.53;;;1.46;64.31
74893;BME280;63446;56.272;43.922;2022-11-15T00:22:51;100766.50;;;1.52;64.27
74893;BME280;63446;56.272;43.922;2022-11-15T00:25:35;100773.94;;;1.55;64.25
74893;BME280;63446;56.272;43.922;2022-11-15T00:28:19;100767.13;;;1.61;64.35
74893;BME280;63446;56.272;43.922;2022-11-15T00:31:13;100761.91;;;1.61;64.12
74893;BME280;63446;56.272;43.922;2022-11-15T00:33:58;100761.34;;;1.65;63.99
74893;BME280;63446;56.272;43.922;2022-11-15T00:36:42;100751.72;;;1.66;64.08
74893;BME280;63446;56.272;43.922;2022-11-15T00:39:27;100747.50;;;1.71;64.04
74893;BME280;63446;56.272;43.922;2022-11-15T00:42:11;100757.72;;;1.73;63.94
74893;BME280;63446;56.272;43.922;2022-11-15T00:44:56;100748.69;;;1.76;63.91
74893;BME280;63446;56.272;43.922;2022-11-15T00:47:44;100748.50;;;1.77;63.91
74893;BME280;63446;56.272;43.922;2022-11-15T00:50:29;100741.09;;;1.74;63.71
74893;BME280;63446;56.272;43.922;2022-11-15T00:53:13;100731.84;;;1.71;63.66
74893;BME280;63446;56.272;43.922;2022-11-15T00:55:58;100735.28;;;1.65;63.63
74893;BME280;63446;56.272;43.922;2022-11-15T00:58:45;100737.25;;;1.57;63.64
74893;BME280;63446;56.272;43.922;2022-11-15T01:01:30;100738.88;;;1.51;63.76
74893;BME280;63446;56.272;43.922;2022-11-15T01:04:14;100737.47;;;1.49;63.91
74893;BME280;63446;56.272;43.922;2022-11-15T01:06:59;100737.66;;;1.47;63.82
74893;BME280;63446;56.272;43.922;2022-11-15T01:09:44;100739.25;;;1.48;63.77
74893;BME280;63446;56.272;43.922;2022-11-15T01:12:29;100740.88;;;1.49;63.67
74893;BME280;63446;56.272;43.922;2022-11-15T01:15:14;100739.88;;;1.50;63.75
74893;BME280;63446;56.272;43.922;2022-11-15T01:17:58;100736.28;;;1.51;63.58
74893;BME280;63446;56.272;43.922;2022-11-15T01:20:43;100743.06;;;1.52;63.46
74893;BME280;63446;56.272;43.922;2022-11-15T01:23:28;100739.47;;;1.53;63.42
74893;BME280;63446;56.272;43.922;2022-11-15T01:26:14;100736.06;;;1.53;63.43
74893;BME280;63446;56.272;43.922;2022-11-15T01:28:59;100735.25;;;1.52;63.38
74893;BME280;63446;56.272;43.922;2022-11-15T01:31:47;100739.47;;;1.53;63.30
74893;BME280;63446;56.272;43.922;2022-11-15T01:34:31;100738.88;;;1.51;63.18
74893;BME280;63446;56.272;43.922;2022-11-15T01:37:15;100739.06;;;1.50;63.23
74893;BME280;63446;56.272;43.922;2022-11-15T01:40:00;100744.47;;;1.48;63.12
74893;BME280;63446;56.272;43.922;2022-11-15T01:42:44;100743.69;;;1.48;63.11
74893;BME280;63446;56.272;43.922;2022-11-15T01:45:29;100745.47;;;1.47;63.05
74893;BME280;63446;56.272;43.922;2022-11-15T01:48:14;100746.47;;;1.46;62.99
74893;BME280;63446;56.272;43.922;2022-11-15T01:51:06;100744.88;;;1.45;62.89
74893;BME280;63446;56.272;43.922;2022-11-15T01:53:54;100744.06;;;1.44;63.00
74893;BME280;63446;56.272;43.922;2022-11-15T01:56:49;100739.88;;;1.43;63.04
74893;BME280;63446;56.272;43.922;2022-11-15T01:59:41;100731.25;;;1.43;62.83
74893;BME280;63446;56.272;43.922;2022-11-15T02:02:29;100732.22;;;1.42;62.79
74893;BME280;63446;56.272;43.922;2022-11-15T02:05:13;100732.44;;;1.40;62.77
74893;BME280;63446;56.272;43.922;2022-11-15T02:07:59;100735.25;;;1.39;62.79
74893;BME280;63446;56.272;43.922;2022-11-15T02:10:46;100732.84;;;1.37;62.88
74893;BME280;63446;56.272;43.922;2022-11-15T02:13:31;100736.06;;;1.39;62.85
74893;BME280;63446;56.272;43.922;2022-11-15T02:28:48;100729.22;;;1.38;62.80
74893;BME280;63446;56.272;43.922;2022-11-15T02:35:12;100731.66;;;1.40;62.65
74893;BME280;63446;56.272;43.922;2022-11-15T02:41:16;100726.44;;;1.40;62.76
74893;BME280;63446;56.272;43.922;2022-11-15T02:44:23;100726.63;;;1.38;62.58
74893;BME280;63446;56.272;43.922;2022-11-15T02:47:12;100723.22;;;1.38;62.57
74893;BME280;63446;56.272;43.922;2022-11-15T02:50:07;100726.63;;;1.38;62.60
74893;BME280;63446;56.272;43.922;2022-11-15T02:52:52;100730.84;;;1.39;62.54
74893;BME280;63446;56.272;43.922;2022-11-15T02:55:38;100724.84;;;1.39;62.54
74893;BME280;63446;56.272;43.922;2022-11-15T02:59:31;100731.81;;;1.38;62.52
74893;BME280;63446;56.272;43.922;2022-11-15T03:08:08;100730.63;;;1.41;62.71
74893;BME280;63446;56.272;43.922;2022-11-15T03:11:11;100741.84;;;1.41;62.50
74893;BME280;63446;56.272;43.922;2022-11-15T03:14:21;100733.06;;;1.42;62.66
74893;BME280;63446;56.272;43.922;2022-11-15T03:20:05;100739.47;;;1.40;62.76
74893;BME280;63446;56.272;43.922;2022-11-15T03:22:51;100738.44;;;1.41;62.75
74893;BME280;63446;56.272;43.922;2022-11-15T03:25:42;100747.69;;;1.43;63.02
74893;BME280;63446;56.272;43.922;2022-11-15T03:28:34;100744.06;;;1.44;62.98
74893;BME280;63446;56.272;43.922;2022-11-15T03:31:21;100746.47;;;1.46;62.96
74893;BME280;63446;56.272;43.922;2022-11-15T03:34:39;100743.84;;;1.46;63.01
74893;BME280;63446;56.272;43.922;2022-11-15T03:40:39;100742.66;;;1.49;62.89
74893;BME280;63446;56.272;43.922;2022-11-15T03:46:16;100745.28;;;1.49;63.07
74893;BME280;63446;56.272;43.922;2022-11-15T03:49:09;100753.88;;;1.49;63.07
74893;BME280;63446;56.272;43.922;2022-11-15T03:51:57;100757.91;;;1.52;63.09
74893;BME280;63446;56.272;43.922;2022-11-15T03:54:56;100752.06;;;1.50;63.23
74893;BME280;63446;56.272;43.922;2022-11-15T03:57:41;100760.13;;;1.55;63.26
74893;BME280;63446;56.272;43.922;2022-11-15T04:00:26;100754.91;;;1.55;63.29
74893;BME280;63446;56.272;43.922;2022-11-15T04:03:11;100762.91;;;1.60;63.19
74893;BME280;63446;56.272;43.922;2022-11-15T04:05:55;100764.50;;;1.61;63.22
74893;BME280;63446;56.272;43.922;2022-11-15T04:08:39;100774.16;;;1.67;63.45
74893;BME280;63446;56.272;43.922;2022-11-15T04:11:24;100778.56;;;1.73;63.30
74893;BME280;63446;56.272;43.922;2022-11-15T04:14:08;100773.94;;;1.75;63.20
74893;BME280;63446;56.272;43.922;2022-11-15T04:16:53;100767.94;;;1.81;63.29
74893;BME280;63446;56.272;43.922;2022-11-15T04:19:37;100772.56;;;1.86;63.29
74893;BME280;63446;56.272;43.922;2022-11-15T04:22:55;100764.34;;;1.89;63.15
74893;BME280;63446;56.272;43.922;2022-11-15T04:26:09;100766.94;;;1.89;63.11
74893;BME280;63446;56.272;43.922;2022-11-15T04:28:55;100761.13;;;1.87;63.06
74893;BME280;63446;56.272;43.922;2022-11-15T04:31:58;100753.50;;;1.85;63.24
74893;BME280;63446;56.272;43.922;2022-11-15T04:34:43;100770.13;;;1.84;63.27
74893;BME280;63446;56.272;43.922;2022-11-15T04:37:28;100775.34;;;1.84;63.25
74893;BME280;63446;56.272;43.922;2022-11-15T04:40:13;100772.75;;;1.84;63.31
74893;BME280;63446;56.272;43.922;2022-11-15T04:42:57;100778.78;;;1.85;63.24
74893;BME280;63446;56.272;43.922;2022-11-15T04:45:42;100773.56;;;1.85;63.31
74893;BME280;63446;56.272;43.922;2022-11-15T04:48:27;100773.97;;;1.88;63.19
74893;BME280;63446;56.272;43.922;2022-11-15T04:51:11;100784.38;;;1.88;63.23
74893;BME280;63446;56.272;43.922;2022-11-15T04:53:55;100784.97;;;1.90;63.07
74893;BME280;63446;56.272;43.922;2022-11-15T04:56:40;100791.78;;;1.91;63.04
74893;BME280;63446;56.272;43.922;2022-11-15T04:59:25;100789.59;;;1.95;63.31
74893;BME280;63446;56.272;43.922;2022-11-15T05:02:09;100789.41;;;1.97;63.48
74893;BME280;63446;56.272;43.922;2022-11-15T05:04:54;100791.00;;;1.98;63.37
74893;BME280;63446;56.272;43.922;2022-11-15T05:07:38;100788.19;;;1.99;63.29
74893;BME280;63446;56.272;43.922;2022-11-15T05:10:23;100788.78;;;2.01;63.38
74893;BME280;63446;56.272;43.922;2022-11-15T05:13:07;100798.81;;;2.04;63.32
74893;BME280;63446;56.272;43.922;2022-11-15T05:15:52;100798.41;;;2.07;63.16
74893;BME280;63446;56.272;43.922;2022-11-15T05:18:37;100803.22;;;2.10;63.19
74893;BME280;63446;56.272;43.922;2022-11-15T05:21:24;100799.41;;;2.13;63.09
74893;BME280;63446;56.272;43.922;2022-11-15T05:24:10;100794.38;;;2.18;63.08
74893;BME280;63446;56.272;43.922;2022-11-15T05:26:55;100801.81;;;2.21;63.08
74893;BME280;63446;56.272;43.922;2022-11-15T05:29:39;100803.00;;;2.25;62.94
74893;BME280;63446;56.272;43.922;2022-11-15T05:32:25;100794.16;;;2.26;62.93
74893;BME280;63446;56.272;43.922;2022-11-15T05:35:16;100803.81;;;2.32;62.92
74893;BME280;63446;56.272;43.922;2022-11-15T05:38:03;100804.19;;;2.42;62.95
74893;BME280;63446;56.272;43.922;2022-11-15T05:40:47;100803.97;;;2.51;62.88
74893;BME280;63446;56.272;43.922;2022-11-15T05:43:34;100814.78;;;2.61;62.66
74893;BME280;63446;56.272;43.922;2022-11-15T05:46:19;100812.53;;;2.71;62.55
74893;BME280;63446;56.272;43.922;2022-11-15T05:49:07;100808.91;;;2.79;62.41
74893;BME280;63446;56.272;43.922;2022-11-15T05:51:54;100818.31;;;2.86;62.26
74893;BME280;63446;56.272;43.922;2022-11-15T05:54:40;100805.25;;;2.93;62.10
74893;BME280;63446;56.272;43.922;2022-11-15T05:57:24;100802.41;;;3.01;61.96
74893;BME280;63446;56.272;43.922;2022-11-15T06:00:10;100813.81;;;3.07;61.79
74893;BME280;63446;56.272;43.922;2022-11-15T06:02:54;100815.00;;;3.11;61.52
74893;BME280;63446;56.272;43.922;2022-11-15T06:05:40;100813.38;;;3.16;61.54
74893;BME280;63446;56.272;43.922;2022-11-15T06:08:25;100814.19;;;3.17;61.55
74893;BME280;63446;56.272;43.922;2022-11-15T06:11:09;100812.16;;;3.19;61.42
74893;BME280;63446;56.272;43.922;2022-11-15T06:13:54;100817.59;;;3.17;61.44
74893;BME280;63446;56.272;43.922;2022-11-15T06:16:41;100817.81;;;3.16;61.32
74893;BME280;63446;56.272;43.922;2022-11-15T06:19:26;100812.59;;;3.16;61.34
74893;BME280;63446;56.272;43.922;2022-11-15T06:22:11;100819.19;;;3.18;61.31
74893;BME280;63446;56.272;43.922;2022-11-15T06:24:56;100818.78;;;3.22;61.28
74893;BME280;63446;56.272;43.922;2022-11-15T06:27:41;100822.56;;;3.26;61.35
74893;BME280;63446;56.272;43.922;2022-11-15T06:30:27;100826.97;;;3.32;61.24
74893;BME280;63446;56.272;43.922;2022-11-15T06:33:11;100824.94;;;3.34;61.24
74893;BME280;63446;56.272;43.922;2022-11-15T06:35:59;100826.09;;;3.38;61.18
74893;BME280;63446;56.272;43.922;2022-11-15T06:38:44;100829.09;;;3.41;61.11
74893;BME280;63446;56.272;43.922;2022-11-15T06:41:28;100830.28;;;3.46;61.04
74893;BME280;63446;56.272;43.922;2022-11-15T06:44:13;100826.06;;;3.51;60.89
74893;BME280;63446;56.272;43.922;2022-11-15T06:46:58;100824.41;;;3.57;60.83
74893;BME280;63446;56.272;43.922;2022-11-15T06:49:43;100826.75;;;3.65;60.58
74893;BME280;63446;56.272;43.922;2022-11-15T06:52:28;100831.53;;;3.75;60.57
74893;BME280;63446;56.272;43.922;2022-11-15T06:55:16;100821.44;;;3.78;60.13
74893;BME280;63446;56.272;43.922;2022-11-15T06:58:01;100818.03;;;3.78;59.78
74893;BME280;63446;56.272;43.922;2022-11-15T07:00:46;100834.53;;;3.78;59.43
74893;BME280;63446;56.272;43.922;2022-11-15T07:03:34;100824.28;;;3.77;59.13
74893;BME280;63446;56.272;43.922;2022-11-15T07:06:19;100829.72;;;3.75;58.89
74893;BME280;63446;56.272;43.922;2022-11-15T07:09:03;100822.25;;;3.79;58.92
74893;BME280;63446;56.272;43.922;2022-11-15T07:11:48;100832.25;;;3.88;58.82
74893;BME280;63446;56.272;43.922;2022-11-15T07:14:32;100826.75;;;3.97;58.60
74893;BME280;63446;56.272;43.922;2022-11-15T07:17:17;100824.66;;;4.05;58.28
74893;BME280;63446;56.272;43.922;2022-11-15T07:20:02;100821.22;;;4.11;58.18
74893;BME280;63446;56.272;43.922;2022-11-15T07:22:47;100816.97;;;4.10;58.13
74893;BME280;63446;56.272;43.922;2022-11-15T07:25:31;100820.19;;;4.12;58.09
74893;BME280;63446;56.272;43.922;2022-11-15T07:28:16;100820.31;;;4.18;58.08
74893;BME280;63446;56.272;43.922;2022-11-15T07:31:03;100820.38;;;4.36;57.79
74893;BME280;63446;56.272;43.922;2022-11-15T07:33:48;100811.94;;;4.52;57.65
74893;BME280;63446;56.272;43.922;2022-11-15T07:36:32;100811.09;;;4.77;57.23
74893;BME280;63446;56.272;43.922;2022-11-15T07:39:17;100820.38;;;4.91;56.92
74893;BME280;63446;56.272;43.922;2022-11-15T07:42:03;100822.84;;;5.04;56.80
74893;BME280;63446;56.272;43.922;2022-11-15T07:45:06;100828.59;;;5.13;56.84
74893;BME280;63446;56.272;43.922;2022-11-15T07:47:51;100821.09;;;5.17;56.66
74893;BME280;63446;56.272;43.922;2022-11-15T07:50:39;100823.28;;;5.20;56.69
74893;BME280;63446;56.272;43.922;2022-11-15T07:53:26;100817.38;;;5.24;56.68
74893;BME280;63446;56.272;43.922;2022-11-15T07:56:10;100821.94;;;5.29;56.66
74893;BME280;63446;56.272;43.922;2022-11-15T07:58:55;100818.06;;;5.31;56.54
74893;BME280;63446;56.272;43.922;2022-11-15T08:01:39;100813.41;;;5.33;56.69
74893;BME280;63446;56.272;43.922;2022-11-15T08:04:24;100819.22;;;5.35;56.53
74893;BME280;63446;56.272;43.922;2022-11-15T08:07:09;100815.56;;;5.36;56.39
74893;BME280;63446;56.272;43.922;2022-11-15T08:09:54;100819.22;;;5.35;56.36
74893;BME280;63446;56.272;43.922;2022-11-15T08:12:40;100826.06;;;5.36;56.27
74893;BME280;63446;56.272;43.922;2022-11-15T08:15:25;100809.19;;;5.32;56.18
74893;BME280;63446;56.272;43.922;2022-11-15T08:18:13;100817.75;;;5.39;56.19
74893;BME280;63446;56.272;43.922;2022-11-15T08:21:00;100810.03;;;5.45;56.10
74893;BME280;63446;56.272;43.922;2022-11-15T08:23:45;100812.44;;;5.46;56.26
74893;BME280;63446;56.272;43.922;2022-11-15T08:26:29;100810.59;;;5.47;56.18
74893;BME280;63446;56.272;43.922;2022-11-15T08:29:14;100805.81;;;5.44;56.14
74893;BME280;63446;56.272;43.922;2022-11-15T08:32:00;100808.88;;;5.41;56.26
74893;BME280;63446;56.272;43.922;2022-11-15T08:34:45;100810.69;;;5.40;56.43
74893;BME280;63446;56.272;43.922;2022-11-15T08:37:30;100811.94;;;5.37;56.47
74893;BME280;63446;56.272;43.922;2022-11-15T08:40:15;100813.75;;;5.37;56.69
74893;BME280;63446;56.272;43.922;2022-11-15T08:43:02;100814.56;;;5.37;56.78
74893;BME280;63446;56.272;43.922;2022-11-15T08:45:47;100811.50;;;5.41;56.75
74893;BME280;63446;56.272;43.922;2022-11-15T08:48:31;100820.06;;;5.48;56.64
74893;BME280;63446;56.272;43.922;2022-11-15T08:51:15;100814.81;;;5.48;56.59
74893;BME280;63446;56.272;43.922;2022-11-15T08:54:00;100809.81;;;5.46;56.58
74893;BME280;63446;56.272;43.922;2022-11-15T08:56:46;100808.66;;;5.42;56.44
74893;BME280;63446;56.272;43.922;2022-11-15T08:59:32;100812.53;;;5.39;56.45
74893;BME280;63446;56.272;43.922;2022-11-15T09:02:17;100809.66;;;5.41;56.44
74893;BME280;63446;56.272;43.922;2022-11-15T09:05:02;100806.25;;;5.41;56.40
74893;BME280;63446;56.272;43.922;2022-11-15T09:07:46;100800.22;;;5.40;56.36
74893;BME280;63446;56.272;43.922;2022-11-15T09:10:32;100809.47;;;5.43;56.40
74893;BME280;63446;56.272;43.922;2022-11-15T09:13:16;100799.78;;;5.43;56.34
74893;BME280;63446;56.272;43.922;2022-11-15T09:16:01;100805.81;;;5.44;56.24
74893;BME280;63446;56.272;43.922;2022-11-15T09:18:45;100803.63;;;5.41;56.14
74893;BME280;63446;56.272;43.922;2022-11-15T09:21:30;100809.91;;;5.39;56.17
74893;BME280;63446;56.272;43.922;2022-11-15T09:24:14;100802.00;;;5.28;56.25
74893;BME280;63446;56.272;43.922;2022-11-15T09:27:00;100813.84;;;5.30;56.17
74893;BME280;63446;56.272;43.922;2022-11-15T09:29:44;100812.13;;;5.24;56.18
74893;BME280;63446;56.272;43.922;2022-11-15T09:32:30;100821.44;;;5.20;56.43
74893;BME280;63446;56.272;43.922;2022-11-15T09:35:15;100812.19;;;5.18;56.28
74893;BME280;63446;56.272;43.922;2022-11-15T09:37:59;100812.63;;;5.14;56.50
74893;BME280;63446;56.272;43.922;2022-11-15T09:40:50;100804.78;;;5.14;56.35
74893;BME280;63446;56.272;43.922;2022-11-15T09:49:36;100816.94;;;5.09;56.53
74893;BME280;63446;56.272;43.922;2022-11-15T09:52:14;100810.31;;;5.06;56.52
74893;BME280;63446;56.272;43.922;2022-11-15T09:54:43;100805.09;;;5.06;56.77
74893;BME280;63446;56.272;43.922;2022-11-15T09:57:38;100809.53;;;5.06;56.86
74893;BME280;63446;56.272;43.922;2022-11-15T10:00:29;100808.72;;;5.05;56.86
74893;BME280;63446;56.272;43.922;2022-11-15T10:05:39;100811.34;;;5.05;56.92
74893;BME280;63446;56.272;43.922;2022-11-15T10:10:42;100810.69;;;5.10;56.70
74893;BME280;63446;56.272;43.922;2022-11-15T10:13:28;100804.66;;;5.09;56.70
74893;BME280;63446;56.272;43.922;2022-11-15T10:16:09;100804.41;;;5.11;56.65
74893;BME280;63446;56.272;43.922;2022-11-15T10:24:28;100801.47;;;5.07;56.39
74893;BME280;63446;56.272;43.922;2022-11-15T10:26:57;100799.28;;;5.04;56.50
74893;BME280;63446;56.272;43.922;2022-11-15T10:29:24;100805.75;;;5.02;56.51
74893;BME280;63446;56.272;43.922;2022-11-15T10:31:50;100804.59;;;4.98;56.47
74893;BME280;63446;56.272;43.922;2022-11-15T10:34:19;100806.06;;;4.94;56.62
74893;BME280;63446;56.272;43.922;2022-11-15T10:36:47;100802.28;;;4.89;56.60
74893;BME280;63446;56.272;43.922;2022-11-15T10:39:19;100806.72;;;4.89;56.64
74893;BME280;63446;56.272;43.922;2022-11-15T10:41:45;100806.34;;;4.85;56.67
74893;BME280;63446;56.272;43.922;2022-11-15T10:46:47;100815.88;;;4.80;56.67
74893;BME280;63446;56.272;43.922;2022-11-15T10:49:19;100811.09;;;4.77;56.66
74893;BME280;63446;56.272;43.922;2022-11-15T10:52:03;100811.53;;;4.74;56.77
74893;BME280;63446;56.272;43.922;2022-11-15T10:54:37;100805.94;;;4.70;56.86
74893;BME280;63446;56.272;43.922;2022-11-15T10:57:12;100805.34;;;4.68;56.85
74893;BME280;63446;56.272;43.922;2022-11-15T10:59:44;100798.50;;;4.67;56.80
74893;BME280;63446;56.272;43.922;2022-11-15T11:04:56;100801.97;;;4.61;57.08
74893;BME280;63446;56.272;43.922;2022-11-15T11:07:26;100800.63;;;4.58;56.96
74893;BME280;63446;56.272;43.922;2022-11-15T11:12:32;100802.28;;;4.53;57.04
74893;BME280;63446;56.272;43.922;2022-11-15T11:15:00;100801.72;;;4.51;56.98
74893;BME280;63446;56.272;43.922;2022-11-15T11:17:42;100803.16;;;4.47;57.12
74893;BME280;63446;56.272;43.922;2022-11-15T11:20:31;100808.03;;;4.43;57.20
74893;BME280;63446;56.272;43.922;2022-11-15T11:23:04;100810.84;;;4.41;57.22
74893;BME280;63446;56.272;43.922;2022-11-15T11:28:38;100812.16;;;4.32;57.40
74893;BME280;63446;56.272;43.922;2022-11-15T11:31:40;100808.38;;;4.28;57.41
74893;BME280;63446;56.272;43.922;2022-11-15T11:42:09;100812.06;;;4.21;57.65
74893;BME280;63446;56.272;43.922;2022-11-15T11:44:56;100813.50;;;4.16;57.82
74893;BME280;63446;56.272;43.922;2022-11-15T11:47:26;100805.28;;;4.13;57.79
74893;BME280;63446;56.272;43.922;2022-11-15T11:50:10;100805.13;;;4.08;57.93
74893;BME280;63446;56.272;43.922;2022-11-15T11:55:23;100802.56;;;4.01;57.89
74893;BME280;63446;56.272;43.922;2022-11-15T12:00:25;100802.03;;;3.92;57.87
74893;BME280;63446;56.272;43.922;2022-11-15T12:05:33;100795.28;;;3.85;58.14
74893;BME280;63446;56.272;43.922;2022-11-15T12:08:34;100800.13;;;3.81;58.17
74893;BME280;63446;56.272;43.922;2022-11-15T12:11:17;100793.72;;;3.77;58.28
74893;BME280;63446;56.272;43.922;2022-11-15T12:13:44;100799.94;;;3.76;58.45
74893;BME280;63446;56.272;43.922;2022-11-15T12:16:26;100800.97;;;3.75;58.46
74893;BME280;63446;56.272;43.922;2022-11-15T12:18:54;100798.34;;;3.75;58.43
74893;BME280;63446;56.272;43.922;2022-11-15T12:21:39;100806.19;;;3.75;58.43
74893;BME280;63446;56.272;43.922;2022-11-15T12:24:22;100799.94;;;3.76;58.61
74893;BME280;63446;56.272;43.922;2022-11-15T12:26:59;100805.38;;;3.75;58.55
74893;BME280;63446;56.272;43.922;2022-11-15T12:29:39;100804.78;;;3.73;58.49
74893;BME280;63446;56.272;43.922;2022-11-15T12:32:31;100806.81;;;3.71;58.59
74893;BME280;63446;56.272;43.922;2022-11-15T12:34:59;100805.66;;;3.66;58.50
74893;BME280;63446;56.272;43.922;2022-11-15T12:42:56;100809.56;;;3.51;58.72
74893;BME280;63446;56.272;43.922;2022-11-15T13:01:09;100793.28;;;3.17;59.17
74893;BME280;63446;56.272;43.922;2022-11-15T13:03:35;100790.28;;;3.13;59.06
74893;BME280;63446;56.272;43.922;2022-11-15T13:06:04;100792.31;;;3.11;59.22
74893;BME280;63446;56.272;43.922;2022-11-15T13:08:46;100795.53;;;3.07;59.13
74893;BME280;63446;56.272;43.922;2022-11-15T13:11:46;100787.13;;;3.05;58.92
74893;BME280;63446;56.272;43.922;2022-11-15T13:14:42;100793.53;;;3.02;59.25
74893;BME280;63446;56.272;43.922;2022-11-15T13:19:46;100788.34;;;2.96;59.10
74893;BME280;63446;56.272;43.922;2022-11-15T13:22:12;100788.56;;;2.94;59.09
74893;BME280;63446;56.272;43.922;2022-11-15T13:24:57;100790.16;;;2.95;59.13
74893;BME280;63446;56.272;43.922;2022-11-15T13:27:24;100789.59;;;2.93;59.21
74893;BME280;63446;56.272;43.922;2022-11-15T13:29:50;100788.56;;;2.94;59.18
74893;BME280;63446;56.272;43.922;2022-11-15T13:32:16;100800.03;;;2.93;59.23
74893;BME280;63446;56.272;43.922;2022-11-15T13:34:47;100798.22;;;2.93;59.26
74893;BME280;63446;56.272;43.922;2022-11-15T13:37:31;100795.78;;;2.92;59.25
74893;BME280;63446;56.272;43.922;2022-11-15T13:40:22;100788.78;;;2.92;59.25
74893;BME280;63446;56.272;43.922;2022-11-15T13:42:49;100792.78;;;2.95;59.22
74893;BME280;63446;56.272;43.922;2022-11-15T13:45:17;100791.78;;;2.96;59.24
74893;BME280;63446;56.272;43.922;2022-11-15T13:47:43;100786.34;;;2.98;59.29
74893;BME280;63446;56.272;43.922;2022-11-15T13:50:12;100790.56;;;2.99;59.08
74893;BME280;63446;56.272;43.922;2022-11-15T13:52:40;100781.91;;;2.98;59.10
74893;BME280;63446;56.272;43.922;2022-11-15T13:55:13;100788.75;;;2.99;59.12
74893;BME280;63446;56.272;43.922;2022-11-15T13:57:57;100794.75;;;3.00;59.19
74893;BME280;63446;56.272;43.922;2022-11-15T14:00:43;100787.13;;;2.98;59.12
74893;BME280;63446;56.272;43.922;2022-11-15T14:03:19;100779.91;;;3.00;59.11
74893;BME280;63446;56.272;43.922;2022-11-15T14:06:06;100789.13;;;3.03;59.05
74893;BME280;63446;56.272;43.922;2022-11-15T14:08:36;100788.72;;;3.06;59.08
74893;BME280;63446;56.272;43.922;2022-11-15T14:11:13;100786.72;;;3.08;59.03
74893;BME280;63446;56.272;43.922;2022-11-15T14:13:39;100792.72;;;3.08;59.08
74893;BME280;63446;56.272;43.922;2022-11-15T14:16:20;100790.91;;;3.09;59.08
74893;BME280;63446;56.272;43.922;2022-11-15T14:18:49;100796.94;;;3.09;59.13
74893;BME280;63446;56.272;43.922;2022-11-15T14:21:16;100788.09;;;3.10;59.11
74893;BME280;63446;56.272;43.922;2022-11-15T14:23:43;100791.50;;;3.11;59.08
74893;BME280;63446;56.272;43.922;2022-11-15T14:26:28;100782.84;;;3.10;59.10
74893;BME280;63446;56.272;43.922;2022-11-15T14:28:54;100786.28;;;3.11;59.12
74893;BME280;63446;56.272;43.922;2022-11-15T14:31:20;100789.91;;;3.10;59.21
74893;BME280;63446;56.272;43.922;2022-11-15T14:33:47;100789.91;;;3.10;59.26
74893;BME280;63446;56.272;43.922;2022-11-15T14:36:16;100784.69;;;3.10;59.30
74893;BME280;63446;56.272;43.922;2022-11-15T14:38:43;100784.69;;;3.10;59.32
74893;BME280;63446;56.272;43.922;2022-11-15T14:41:23;100782.66;;;3.12;59.13
74893;BME280;63446;56.272;43.922;2022-11-15T14:43:50;100789.50;;;3.13;59.26
74893;BME280;63446;56.272;43.922;2022-11-15T14:46:17;100779.03;;;3.13;59.32
74893;BME280;63446;56.272;43.922;2022-11-15T14:48:43;100788.47;;;3.14;59.34
74893;BME280;63446;56.272;43.922;2022-11-15T14:51:13;100789.50;;;3.13;59.47
74893;BME280;63446;56.272;43.922;2022-11-15T14:53:40;100771.44;;;3.11;59.40
74893;BME280;63446;56.272;43.922;2022-11-15T14:56:07;100785.69;;;3.09;59.70
74893;BME280;63446;56.272;43.922;2022-11-15T14:58:33;100774.44;;;3.08;59.82
74893;BME280;63446;56.272;43.922;2022-11-15T15:00:58;100770.03;;;3.02;59.86
74893;BME280;63446;56.272;43.922;2022-11-15T15:03:25;100772.66;;;3.02;59.94
74893;BME280;63446;56.272;43.922;2022-11-15T15:05:50;100779.09;;;3.00;59.93
74893;BME280;63446;56.272;43.922;2022-11-15T15:08:16;100775.69;;;2.99;59.81
74893;BME280;63446;56.272;43.922;2022-11-15T15:10:44;100768.06;;;2.98;59.80
74893;BME280;63446;56.272;43.922;2022-11-15T15:13:24;100775.50;;;2.94;59.79
74893;BME280;63446;56.272;43.922;2022-11-15T15:15:51;100767.91;;;2.92;59.78
74893;BME280;63446;56.272;43.922;2022-11-15T15:18:17;100771.94;;;2.88;59.79
74893;BME280;63446;56.272;43.922;2022-11-15T15:20:44;100779.16;;;2.86;59.74
74893;BME280;63446;56.272;43.922;2022-11-15T15:23:18;100783.78;;;2.84;59.81
74893;BME280;63446;56.272;43.922;2022-11-15T15:25:45;100776.97;;;2.83;60.02
74893;BME280;63446;56.272;43.922;2022-11-15T15:28:13;100773.16;;;2.79;60.10
74893;BME280;63446;56.272;43.922;2022-11-15T15:30:39;100781.41;;;2.76;60.25
74893;BME280;63446;56.272;43.922;2022-11-15T15:33:04;100784.63;;;2.72;60.35
74893;BME280;63446;56.272;43.922;2022-11-15T15:35:32;100780.03;;;2.67;60.49
74893;BME280;63446;56.272;43.922;2022-11-15T15:37:59;100773.63;;;2.63;60.72
74893;BME280;63446;56.272;43.922;2022-11-15T15:40:28;100781.69;;;2.61;60.79
74893;BME280;63446;56.272;43.922;2022-11-15T15:42:55;100776.66;;;2.60;60.91
74893;BME280;63446;56.272;43.922;2022-11-15T15:45:22;100771.63;;;2.58;61.00
74893;BME280;63446;56.272;43.922;2022-11-15T15:47:47;100768.41;;;2.56;61.15